createdAt,value
2023-03-12T02:41:38.215Z,4.97
2023-03-12T02:46:38.000Z,6.23
2023-03-12T02:51:30.077Z,5.07
2023-03-12T02:56:27.722Z,5.43
2023-03-12T03:01:20.434Z,4.60
2023-03-12T03:06:13.104Z,5.67
2023-03-12T03:11:06.464Z,5.10
2023-03-12T03:16:02.367Z,4.53
2023-03-12T03:21:16.530Z,4.90
2023-03-12T03:26:08.460Z,4.20
2023-03-12T03:31:02.134Z,6.00
2023-03-12T03:35:55.384Z,3.60
2023-03-12T03:40:47.075Z,5.17
2023-03-12T03:45:38.820Z,4.93
2023-03-12T03:50:30.503Z,7.60
2023-03-12T03:55:23.416Z,5.10
2023-03-12T04:00:17.825Z,4.87
2023-03-12T04:05:10.756Z,3.60
2023-03-12T04:10:04.226Z,5.27
2023-03-12T04:14:56.730Z,5.50
2023-03-12T04:19:48.493Z,4.73
2023-03-12T04:24:40.256Z,5.47
2023-03-12T04:29:31.936Z,5.30
2023-03-12T04:34:23.698Z,6.17
2023-03-12T04:39:20.214Z,5.47
2023-03-12T04:44:13.028Z,5.10
2023-03-12T04:49:05.345Z,7.30
2023-03-12T05:04:15.003Z,5.60
2023-03-12T05:09:06.758Z,5.27
2023-03-12T05:13:58.556Z,4.33
2023-03-12T05:18:50.276Z,4.70
2023-03-12T05:23:43.061Z,5.57
2023-03-12T05:28:34.747Z,4.97
2023-03-12T05:33:28.558Z,6.40
2023-03-12T05:43:36.802Z,4.80
2023-03-12T05:48:29.196Z,6.30
2023-03-12T05:53:20.856Z,4.33
2023-03-12T05:58:12.777Z,4.63
2023-03-12T06:03:05.386Z,4.10
2023-03-12T06:13:03.172Z,4.40
2023-03-12T06:17:54.894Z,6.13
2023-03-12T06:22:46.617Z,5.67
2023-03-12T06:27:38.333Z,6.87
2023-03-12T06:32:30.113Z,8.07
2023-03-12T06:37:21.898Z,6.03
2023-03-12T06:42:14.715Z,6.30
2023-03-12T06:47:09.365Z,6.50
2023-03-12T07:08:16.627Z,6.67
2023-03-12T07:13:08.996Z,5.17
2023-03-12T07:18:04.502Z,6.70
2023-03-12T07:33:16.581Z,7.77
2023-03-12T07:38:12.043Z,8.80
2023-03-12T07:48:43.630Z,8.13
2023-03-12T07:53:35.899Z,9.27
2023-03-12T08:14:47.733Z,7.50
2023-03-12T08:19:39.656Z,7.67
2023-03-12T08:40:16.670Z,5.13
2023-03-12T08:50:18.280Z,3.77
2023-03-12T08:55:13.764Z,4.00
2023-03-12T09:00:12.157Z,3.23
2023-03-12T09:05:04.905Z,3.43
2023-03-12T09:09:56.713Z,3.27
2023-03-12T09:19:56.824Z,4.57
2023-03-12T09:24:52.477Z,3.23
2023-03-12T09:34:49.875Z,3.63
2023-03-12T09:55:28.073Z,2.30
2023-03-12T10:06:11.879Z,2.33
2023-03-12T10:11:32.194Z,1.53
2023-03-12T10:16:59.226Z,4.50
2023-03-12T10:22:30.003Z,3.03
2023-03-12T10:27:27.642Z,4.83
2023-03-12T10:32:37.209Z,2.57
2023-03-12T10:37:40.512Z,2.30
2023-03-12T10:42:33.111Z,3.53
2023-03-12T10:47:37.015Z,3.80
2023-03-12T10:52:28.703Z,2.63
2023-03-12T10:57:21.060Z,1.90
2023-03-12T11:07:48.096Z,1.37
2023-03-12T11:28:11.885Z,1.87
2023-03-12T11:33:05.162Z,1.30
2023-03-12T11:38:15.892Z,2.10
2023-03-12T11:43:43.168Z,2.27
2023-03-12T11:49:22.180Z,1.90
2023-03-12T11:54:40.277Z,1.10
2023-03-12T11:59:52.595Z,0.83
2023-03-12T12:05:03.657Z,0.90
2023-03-12T12:10:10.767Z,1.40
2023-03-12T12:38:14.277Z,2.10
2023-03-12T12:43:32.152Z,3.30
2023-03-12T12:48:39.895Z,2.03
2023-03-12T12:53:49.941Z,0.87
2023-03-12T12:59:32.189Z,1.40
2023-03-12T13:04:31.916Z,5.00
2023-03-12T13:09:43.979Z,6.27
2023-03-12T13:14:42.999Z,5.43
2023-03-12T13:19:44.896Z,3.23
2023-03-12T13:24:44.475Z,4.27
2023-03-12T13:29:51.730Z,2.67
2023-03-12T13:34:47.129Z,3.23
2023-03-12T13:39:38.808Z,5.13
2023-03-12T13:44:41.550Z,3.40
2023-03-12T13:49:52.470Z,7.43
2023-03-12T13:54:49.235Z,2.33
2023-03-12T13:59:54.929Z,3.40
2023-03-12T14:15:49.684Z,2.30
2023-03-12T14:20:47.217Z,2.57
2023-03-12T14:25:48.260Z,3.83
2023-03-12T14:30:59.718Z,3.17
2023-03-12T14:36:04.256Z,3.07
2023-03-12T14:41:14.362Z,0.83
2023-03-12T14:51:37.058Z,4.47
2023-03-12T14:56:38.104Z,3.43
2023-03-12T15:01:37.460Z,5.53
2023-03-12T15:06:48.161Z,3.40
2023-03-12T15:11:39.997Z,3.60
2023-03-12T15:16:31.832Z,4.40
2023-03-12T15:21:24.864Z,3.23
2023-03-12T15:26:32.449Z,2.27
2023-03-12T15:31:24.470Z,3.47
2023-03-12T15:41:57.564Z,2.57
2023-03-12T15:46:55.227Z,3.70
2023-03-12T15:57:53.032Z,3.57
2023-03-12T16:03:18.327Z,3.60
2023-03-12T16:08:41.631Z,2.40
2023-03-12T16:13:33.429Z,5.87
2023-03-12T16:18:25.824Z,2.43
2023-03-12T16:23:18.816Z,3.10
2023-03-12T16:28:15.521Z,4.50
2023-03-12T16:33:09.124Z,2.73
2023-03-12T16:38:02.338Z,4.63
2023-03-12T16:43:00.293Z,6.50
2023-03-12T16:47:59.158Z,4.07
2023-03-12T16:52:51.787Z,5.03
2023-03-12T16:58:11.102Z,4.40
2023-03-12T17:03:05.580Z,4.40
2023-03-12T17:07:59.485Z,3.30
2023-03-12T17:12:52.340Z,4.23
2023-03-12T17:17:44.657Z,3.10
2023-03-12T17:37:55.937Z,2.10
2023-03-12T17:42:48.905Z,3.77
2023-03-12T17:47:48.960Z,4.03
2023-03-12T17:52:41.100Z,2.97
2023-03-12T17:57:33.242Z,3.17
2023-03-12T18:02:26.545Z,4.13
2023-03-12T18:07:18.836Z,3.33
2023-03-12T18:12:12.227Z,4.80
2023-03-12T18:17:11.426Z,3.20
2023-03-12T18:22:04.017Z,3.43
2023-03-12T18:26:56.987Z,4.67
2023-03-12T18:31:48.675Z,2.90
2023-03-12T18:36:42.047Z,4.67
2023-03-12T18:41:33.994Z,4.30
2023-03-12T18:46:25.855Z,7.70
2023-03-12T18:51:17.616Z,5.27
2023-03-12T18:56:09.325Z,8.43
2023-03-12T19:01:01.728Z,5.77
2023-03-12T19:06:10.974Z,5.10
2023-03-12T19:11:15.187Z,7.10
2023-03-12T19:21:18.655Z,7.20
2023-03-12T19:26:10.866Z,6.13
2023-03-12T19:31:05.848Z,8.80
2023-03-12T19:35:58.185Z,7.67
2023-03-12T19:40:55.490Z,6.87
2023-03-12T19:45:55.722Z,11.50
2023-03-12T19:50:47.885Z,7.13
2023-03-12T19:55:40.418Z,4.70
2023-03-12T20:00:32.308Z,6.40
2023-03-12T20:05:24.029Z,9.23
2023-03-12T20:10:16.090Z,8.87
2023-03-12T20:15:08.689Z,9.20
2023-03-12T20:20:01.144Z,5.03
2023-03-12T20:24:53.702Z,5.47
2023-03-12T20:29:50.573Z,9.40
2023-03-12T20:34:42.412Z,11.40
2023-03-12T20:39:34.136Z,10.97
2023-03-12T20:44:25.963Z,7.53
2023-03-12T20:49:17.753Z,9.33
2023-03-12T20:54:10.094Z,6.23
2023-03-12T20:59:02.024Z,7.90
2023-03-12T21:03:57.755Z,8.73
2023-03-12T21:13:56.284Z,4.53
2023-03-12T21:18:48.115Z,5.17
2023-03-12T21:23:41.748Z,5.67
2023-03-12T21:28:34.810Z,4.67
2023-03-12T21:33:26.488Z,4.50
2023-03-12T21:38:18.171Z,5.10
2023-03-12T21:43:09.867Z,3.00
2023-03-12T21:48:01.714Z,6.63
2023-03-12T21:52:53.623Z,5.07
2023-03-12T21:57:45.894Z,4.23
2023-03-12T22:02:37.584Z,5.20
2023-03-12T22:07:30.036Z,3.83
2023-03-12T22:12:21.734Z,3.10
2023-03-12T22:17:13.459Z,4.80
2023-03-12T22:22:05.268Z,3.33
2023-03-12T22:26:56.938Z,1.53
2023-03-12T22:31:48.836Z,3.57
2023-03-12T22:36:40.955Z,3.53
2023-03-12T22:41:32.925Z,2.50
2023-03-12T22:46:27.310Z,7.70
2023-03-12T22:51:19.117Z,4.13
2023-03-12T22:56:13.808Z,3.40
2023-03-12T23:06:29.964Z,4.13
2023-03-12T23:11:25.616Z,6.23
2023-03-12T23:16:22.368Z,2.10
2023-03-12T23:21:21.853Z,3.37
2023-03-12T23:26:31.768Z,2.37
2023-03-12T23:31:24.495Z,5.53
2023-03-12T23:36:19.159Z,4.03
2023-03-12T23:41:20.953Z,5.13
2023-03-12T23:46:16.703Z,2.33
2023-03-12T23:51:21.090Z,4.03
2023-03-12T23:56:19.312Z,1.77
